Time,TemperatureF,DewpointF,PressureIn,WindDirection,WindDirectionDegrees,WindSpeedMPH,WindSpeedGustMPH,Humidity,HourlyPrecipIn,Conditions,Clouds,dailyrainin,SoftwareType,DateUTC
2013-01-09 00:00:00,39.9,19.2,30.33,WNW,297,3.6,7.2,43,0.00,,---,0.00,VWS V14.01,2013-01-09 05:00:00,
2013-01-09 00:03:00,39.9,19.2,30.33,WNW,293,3.1,6.2,43,0.00,,---,0.00,VWS V14.01,2013-01-09 05:03:00,
2013-01-09 00:05:00,39.9,19.2,30.33,WNW,286,3.1,4.6,43,0.00,,---,0.00,VWS V14.01,2013-01-09 05:05:00,
2013-01-09 00:11:00,39.7,19.1,30.33,West,277,3.6,4.6,43,0.00,,---,0.00,VWS V14.01,2013-01-09 05:11:00,
2013-01-09 00:14:00,39.7,19.1,30.33,SW,232,2.6,4.6,43,0.00,,---,0.00,VWS V14.01,2013-01-09 05:14:00,
2013-01-09 00:19:00,39.6,18.9,30.33,West,267,3.6,6.7,43,0.00,,---,0.00,VWS V14.01,2013-01-09 05:19:00,
2013-01-09 00:25:00,39.4,18.8,30.33,West,279,4.6,4.6,43,0.00,,---,0.00,VWS V14.01,2013-01-09 05:25:00,
2013-01-09 00:30:00,39.2,18.6,30.33,WNW,288,0.0,3.6,43,0.00,,---,0.00,VWS V14.01,2013-01-09 05:30:00,
2013-01-09 00:36:00,39.2,18.6,30.33,West,281,3.1,5.7,43,0.00,,---,0.00,VWS V14.01,2013-01-09 05:36:00,
2013-01-09 00:42:00,38.8,18.3,30.33,SSW,211,3.1,6.7,43,0.00,,---,0.00,VWS V14.01,2013-01-09 05:42:00,
2013-01-09 00:47:00,38.7,18.1,30.33,SW,220,4.6,4.6,43,0.00,,---,0.00,VWS V14.01,2013-01-09 05:47:00,
2013-01-09 00:53:00,38.5,17.9,30.33,SW,231,2.6,3.6,43,0.00,,---,0.00,VWS V14.01,2013-01-09 05:53:00,
2013-01-09 00:58:00,38.3,17.8,30.33,WNW,287,3.6,3.6,43,0.00,,---,0.00,VWS V14.01,2013-01-09 05:58:00,
2013-01-09 01:04:00,37.9,17.5,30.33,WSW,243,0.0,0.0,43,0.00,,---,0.00,VWS V14.01,2013-01-09 06:04:00,
2013-01-09 01:10:00,37.8,17.3,30.33,SW,217,3.1,3.1,43,0.00,,---,0.00,VWS V14.01,2013-01-09 06:10:00,
2013-01-09 01:15:00,37.4,17.0,30.33,SW,215,0.0,0.0,43,0.00,,---,0.00,VWS V14.01,2013-01-09 06:15:00,
2013-01-09 01:20:00,36.9,17.0,30.33,SW,215,0.0,0.0,44,0.00,,---,0.00,VWS V14.01,2013-01-09 06:20:00,
2013-01-09 01:25:00,36.7,16.8,30.33,SW,215,0.0,0.0,44,0.00,,---,0.00,VWS V14.01,2013-01-09 06:25:00,
2013-01-09 01:31:00,36.3,16.5,30.33,SW,215,0.0,0.0,44,0.00,,---,0.00,VWS V14.01,2013-01-09 06:31:00,
2013-01-09 01:36:00,36.1,16.4,30.30,SW,215,0.0,0.0,44,0.00,,---,0.00,VWS V14.01,2013-01-09 06:36:00,
2013-01-09 01:42:00,35.8,16.0,30.30,SW,216,0.0,0.0,44,0.00,,---,0.00,VWS V14.01,2013-01-09 06:42:00,
2013-01-09 01:47:00,35.4,16.2,30.30,SW,215,2.6,3.6,45,0.00,,---,0.00,VWS V14.01,2013-01-09 06:47:00,
2013-01-09 01:53:00,35.2,16.0,30.33,SW,215,0.0,0.0,45,0.00,,---,0.00,VWS V14.01,2013-01-09 06:53:00,
2013-01-09 01:58:00,35.1,15.9,30.33,SW,215,0.0,0.0,45,0.00,,---,0.00,VWS V14.01,2013-01-09 06:58:00,
2013-01-09 02:03:00,34.9,15.7,30.33,SW,215,0.0,2.6,45,0.00,,---,0.00,VWS V14.01,2013-01-09 07:03:00,
2013-01-09 02:09:00,34.5,15.4,30.33,SW,215,0.0,0.0,45,0.00,,---,0.00,VWS V14.01,2013-01-09 07:09:00,
2013-01-09 02:14:00,34.5,15.4,30.33,SW,215,0.0,0.0,45,0.00,,---,0.00,VWS V14.01,2013-01-09 07:14:00,
2013-01-09 02:20:00,34.5,15.4,30.33,SW,215,3.6,3.6,45,0.00,,---,0.00,VWS V14.01,2013-01-09 07:20:00,
2013-01-09 02:25:00,34.5,15.4,30.33,SW,226,0.0,0.0,45,0.00,,---,0.00,VWS V14.01,2013-01-09 07:25:00,
2013-01-09 02:31:00,34.9,16.2,30.33,SW,226,0.0,0.0,46,0.00,,---,0.00,VWS V14.01,2013-01-09 07:31:00,
2013-01-09 02:36:00,34.9,16.2,30.33,SW,226,3.1,3.1,46,0.00,,---,0.00,VWS V14.01,2013-01-09 07:36:00,
2013-01-09 02:42:00,34.7,16.0,30.33,SW,226,2.6,3.1,46,0.00,,---,0.00,VWS V14.01,2013-01-09 07:42:00,
2013-01-09 02:48:00,34.7,16.0,30.33,SW,226,0.0,0.0,46,0.00,,---,0.00,VWS V14.01,2013-01-09 07:48:00,
2013-01-09 02:53:00,34.5,15.9,30.30,SW,233,0.0,0.0,46,0.00,,---,0.00,VWS V14.01,2013-01-09 07:53:00,
2013-01-09 02:59:00,34.2,15.6,30.30,SW,233,0.0,0.0,46,0.00,,---,0.00,VWS V14.01,2013-01-09 07:59:00,
2013-01-09 03:05:00,33.8,15.2,30.30,SW,233,0.0,0.0,46,0.00,,---,0.00,VWS V14.01,2013-01-09 08:05:00,
2013-01-09 03:10:00,33.6,15.1,30.30,WSW,239,0.0,0.0,46,0.00,,---,0.00,VWS V14.01,2013-01-09 08:10:00,
2013-01-09 03:16:00,33.6,15.1,30.30,WSW,237,0.0,0.0,46,0.00,,---,0.00,VWS V14.01,2013-01-09 08:16:00,
2013-01-09 03:21:00,33.6,15.6,30.33,WSW,237,0.0,0.0,47,0.00,,---,0.00,VWS V14.01,2013-01-09 08:21:00,
2013-01-09 07:32:00,33.3,18.4,30.36,SW,236,0.0,0.0,54,0.00,,---,0.00,VWS V14.01,2013-01-09 12:32:00,
2013-01-09 07:38:00,33.3,18.4,30.36,SW,236,0.0,0.0,54,0.00,,---,0.00,VWS V14.01,2013-01-09 12:38:00,
2013-01-09 07:44:00,33.6,18.8,30.36,SW,236,0.0,0.0,54,0.00,,---,0.00,VWS V14.01,2013-01-09 12:44:00,
2013-01-09 07:49:00,33.6,18.8,30.36,SW,236,0.0,0.0,54,0.00,,---,0.00,VWS V14.01,2013-01-09 12:49:00,
2013-01-09 07:54:00,33.8,18.9,30.39,SW,236,0.0,0.0,54,0.00,,---,0.00,VWS V14.01,2013-01-09 12:54:00,
2013-01-09 08:00:00,34.0,19.1,30.39,SW,236,0.0,0.0,54,0.00,,---,0.00,VWS V14.01,2013-01-09 13:00:00,
2013-01-09 08:05:00,34.3,19.4,30.39,SW,236,0.0,0.0,54,0.00,,---,0.00,VWS V14.01,2013-01-09 13:05:00,
2013-01-09 08:11:00,34.3,19.9,30.39,SW,236,0.0,0.0,55,0.00,,---,0.00,VWS V14.01,2013-01-09 13:11:00,
2013-01-09 08:16:00,34.3,19.9,30.39,SW,236,0.0,0.0,55,0.00,,---,0.00,VWS V14.01,2013-01-09 13:16:00,
2013-01-09 08:22:00,34.5,20.0,30.36,SW,236,0.0,0.0,55,0.00,,---,0.00,VWS V14.01,2013-01-09 13:22:00,
2013-01-09 08:27:00,35.1,20.5,30.36,SW,236,0.0,0.0,55,0.00,,---,0.00,VWS V14.01,2013-01-09 13:27:00,
2013-01-09 08:33:00,35.6,21.0,30.36,SW,236,0.0,0.0,55,0.00,,---,0.00,VWS V14.01,2013-01-09 13:33:00,
2013-01-09 08:38:00,36.0,21.4,30.36,SW,236,0.0,0.0,55,0.00,,---,0.00,VWS V14.01,2013-01-09 13:38:00,
2013-01-09 08:43:00,36.3,21.7,30.36,SW,236,0.0,0.0,55,0.00,,---,0.00,VWS V14.01,2013-01-09 13:43:00,
2013-01-09 08:49:00,37.0,22.8,30.36,SW,236,0.0,0.0,56,0.00,,---,0.00,VWS V14.01,2013-01-09 13:49:00,
2013-01-09 08:54:00,37.4,22.7,30.36,SW,236,0.0,0.0,55,0.00,,---,0.00,VWS V14.01,2013-01-09 13:54:00,
2013-01-09 09:00:00,38.1,23.8,30.36,SW,236,3.6,4.1,56,0.00,,---,0.00,VWS V14.01,2013-01-09 14:00:00,
2013-01-09 09:05:00,38.7,24.3,30.36,SW,236,0.0,3.1,56,0.00,,---,0.00,VWS V14.01,2013-01-09 14:05:00,
2013-01-09 09:11:00,39.4,25.0,30.36,SW,236,0.0,0.0,56,0.00,,---,0.00,VWS V14.01,2013-01-09 14:11:00,
2013-01-09 09:17:00,39.9,25.5,30.36,SW,236,0.0,0.0,56,0.00,,---,0.00,VWS V14.01,2013-01-09 14:17:00,
2013-01-09 09:22:00,40.5,26.0,30.36,SW,236,0.0,0.0,56,0.00,,---,0.00,VWS V14.01,2013-01-09 14:22:00,
2013-01-09 09:28:00,41.0,26.5,30.36,SW,236,0.0,0.0,56,0.00,,---,0.00,VWS V14.01,2013-01-09 14:28:00,
2013-01-09 09:33:00,41.5,27.0,30.36,SW,236,0.0,3.1,56,0.00,,---,0.00,VWS V14.01,2013-01-09 14:33:00,
2013-01-09 09:39:00,42.1,27.5,30.36,SSW,195,3.1,3.6,56,0.00,,---,0.00,VWS V14.01,2013-01-09 14:39:00,
2013-01-09 09:44:00,42.3,27.7,30.36,WSW,241,3.1,4.6,56,0.00,,---,0.00,VWS V14.01,2013-01-09 14:44:00,
2013-01-09 09:50:00,42.4,27.9,30.36,South,169,3.6,5.7,56,0.00,,---,0.00,VWS V14.01,2013-01-09 14:50:00,
2013-01-09 09:55:00,43.0,28.4,30.36,ESE,102,3.1,3.1,56,0.00,,---,0.00,VWS V14.01,2013-01-09 14:55:00,
2013-01-09 10:00:00,43.2,28.5,30.36,SW,235,0.0,3.1,56,0.00,,---,0.00,VWS V14.01,2013-01-09 15:00:00,
2013-01-09 10:06:00,43.3,28.3,30.36,ESE,115,3.1,4.6,55,0.00,,---,0.00,VWS V14.01,2013-01-09 15:06:00,
2013-01-09 10:11:00,43.5,27.5,30.36,SSE,160,3.1,4.6,53,0.00,,---,0.00,VWS V14.01,2013-01-09 15:11:00,
2013-01-09 10:17:00,43.7,27.2,30.36,SSW,199,3.1,4.1,52,0.00,,---,0.00,VWS V14.01,2013-01-09 15:17:00,
2013-01-09 10:22:00,43.9,26.9,30.33,SSE,155,3.6,6.7,51,0.00,,---,0.00,VWS V14.01,2013-01-09 15:22:00,
2013-01-09 10:28:00,44.2,26.3,30.33,SSE,153,6.7,6.7,49,0.00,,---,0.00,VWS V14.01,2013-01-09 15:28:00,
2013-01-09 10:33:00,44.4,26.0,30.33,SSW,196,4.1,5.1,48,0.00,,---,0.00,VWS V14.01,2013-01-09 15:33:00,
2013-01-09 10:39:00,44.6,23.5,30.33,SSW,204,4.1,7.2,43,0.00,,---,0.00,VWS V14.01,2013-01-09 15:39:00,
2013-01-09 10:45:00,44.6,22.4,30.33,SSW,204,4.1,6.7,41,0.00,,---,0.00,VWS V14.01,2013-01-09 15:45:00,
2013-01-09 10:50:00,45.0,22.1,30.33,SW,215,4.6,6.2,40,0.00,,---,0.00,VWS V14.01,2013-01-09 15:50:00,
2013-01-09 10:56:00,45.1,21.7,30.33,SSW,201,9.3,9.3,39,0.00,,---,0.00,VWS V14.01,2013-01-09 15:56:00,
2013-01-09 11:02:00,45.1,19.8,30.33,SSW,202,3.6,7.2,36,0.00,,---,0.00,VWS V14.01,2013-01-09 16:02:00,
2013-01-09 11:07:00,45.3,20.0,30.30,SSE,156,4.1,6.7,36,0.00,,---,0.00,VWS V14.01,2013-01-09 16:07:00,
2013-01-09 11:13:00,45.9,21.7,30.30,SW,223,3.6,6.2,38,0.00,,---,0.00,VWS V14.01,2013-01-09 16:13:00,
2013-01-09 11:18:00,46.2,21.4,30.30,SSW,194,4.6,6.2,37,0.00,,---,0.00,VWS V14.01,2013-01-09 16:18:00,
2013-01-09 11:23:00,46.4,20.9,30.30,SSW,196,7.2,7.2,36,0.00,,---,0.00,VWS V14.01,2013-01-09 16:23:00,
2013-01-09 11:28:00,46.6,20.4,30.30,SSW,212,4.6,6.2,35,0.00,,---,0.00,VWS V14.01,2013-01-09 16:28:00,
2013-01-09 11:34:00,46.8,20.6,30.30,WSW,254,6.2,8.7,35,0.00,,---,0.00,VWS V14.01,2013-01-09 16:34:00,
2013-01-09 11:39:00,46.8,20.6,30.30,SW,226,4.6,6.7,35,0.00,,---,0.00,VWS V14.01,2013-01-09 16:39:00,
2013-01-09 11:45:00,46.9,21.4,30.30,SSW,201,6.7,9.3,36,0.00,,---,0.00,VWS V14.01,2013-01-09 16:45:00,
2013-01-09 11:51:00,47.3,22.4,30.27,SW,216,4.6,8.7,37,0.00,,---,0.00,VWS V14.01,2013-01-09 16:51:00,
2013-01-09 11:56:00,47.3,22.4,30.27,SSE,164,7.2,9.5,37,0.00,,---,0.00,VWS V14.01,2013-01-09 16:56:00,
2013-01-09 12:01:00,47.5,22.5,30.27,SW,220,8.7,8.7,37,0.00,,---,0.00,VWS V14.01,2013-01-09 17:01:00,
2013-01-09 12:06:00,47.7,22.7,30.27,South,187,8.2,8.2,37,0.00,,---,0.00,VWS V14.01,2013-01-09 17:06:00,
2013-01-09 12:12:00,47.8,22.9,30.27,SSW,196,4.1,6.7,37,0.00,,---,0.00,VWS V14.01,2013-01-09 17:12:00,
2013-01-09 12:17:00,47.8,22.9,30.27,SW,223,9.3,10.0,37,0.00,,---,0.00,VWS V14.01,2013-01-09 17:17:00,
2013-01-09 12:23:00,47.8,22.9,30.24,SW,229,8.7,11.6,37,0.00,,---,0.00,VWS V14.01,2013-01-09 17:23:00,
2013-01-09 12:28:00,47.7,23.3,30.24,SW,215,7.2,9.3,38,0.00,,---,0.00,VWS V14.01,2013-01-09 17:28:00,
2013-01-09 12:33:00,47.8,24.1,30.24,SSW,198,10.0,10.0,39,0.00,,---,0.00,VWS V14.01,2013-01-09 17:33:00,
2013-01-09 12:38:00,47.7,23.9,30.24,SW,215,9.3,10.0,39,0.00,,---,0.00,VWS V14.01,2013-01-09 17:38:00,
2013-01-09 12:44:00,47.7,24.5,30.24,South,185,9.5,9.5,40,0.00,,---,0.00,VWS V14.01,2013-01-09 17:44:00,
2013-01-09 12:49:00,47.7,24.5,30.24,SW,221,9.3,12.1,40,0.00,,---,0.00,VWS V14.01,2013-01-09 17:49:00,
2013-01-09 12:55:00,47.7,24.5,30.21,SSW,207,6.7,8.7,40,0.00,,---,0.00,VWS V14.01,2013-01-09 17:55:00,
2013-01-09 13:01:00,47.8,24.7,30.21,SSW,198,10.0,11.6,40,0.00,,---,0.00,VWS V14.01,2013-01-09 18:01:00,
2013-01-09 13:06:00,47.8,24.7,30.21,SSW,200,7.2,11.1,40,0.00,,---,0.00,VWS V14.01,2013-01-09 18:06:00,
2013-01-09 13:12:00,47.8,24.7,30.21,SSW,199,9.5,10.0,40,0.00,,---,0.00,VWS V14.01,2013-01-09 18:12:00,
2013-01-09 13:17:00,47.8,24.7,30.21,South,182,6.2,9.5,40,0.00,,---,0.00,VWS V14.01,2013-01-09 18:17:00,
2013-01-09 13:23:00,47.7,24.5,30.21,SW,217,6.7,10.0,40,0.00,,---,0.00,VWS V14.01,2013-01-09 18:23:00,
2013-01-09 13:29:00,47.7,24.5,30.21,SSW,200,7.7,7.7,40,0.00,,---,0.00,VWS V14.01,2013-01-09 18:29:00,
2013-01-09 13:35:00,47.5,24.4,30.21,SSE,166,7.2,9.5,40,0.00,,---,0.00,VWS V14.01,2013-01-09 18:35:00,
2013-01-09 13:41:00,47.7,23.9,30.18,SSW,195,10.0,10.0,39,0.00,,---,0.00,VWS V14.01,2013-01-09 18:41:00,
2013-01-09 13:42:00,47.7,23.9,30.18,SSW,205,6.7,10.0,39,0.00,,---,0.00,VWS V14.01,2013-01-09 18:42:00,
2013-01-09 13:43:00,47.7,23.9,30.18,South,184,9.3,11.6,39,0.00,,---,0.00,VWS V14.01,2013-01-09 18:43:00,
2013-01-09 13:45:00,47.7,23.9,30.18,SSW,208,10.0,10.0,39,0.00,,---,0.00,VWS V14.01,2013-01-09 18:45:00,
2013-01-09 13:46:00,47.7,23.3,30.18,SSW,200,7.2,10.0,38,0.00,,---,0.00,VWS V14.01,2013-01-09 18:46:00,
2013-01-09 13:49:00,47.7,22.7,30.18,South,175,10.0,10.0,37,0.00,,---,0.00,VWS V14.01,2013-01-09 18:49:00,
2013-01-09 13:50:00,47.7,22.7,30.18,SSW,210,9.3,10.0,37,0.00,,---,0.00,VWS V14.01,2013-01-09 18:50:00,
2013-01-09 13:51:00,47.7,22.7,30.18,SSW,204,8.2,12.1,37,0.00,,---,0.00,VWS V14.01,2013-01-09 18:51:00,
2013-01-09 13:55:00,47.8,22.9,30.18,South,190,8.7,10.0,37,0.00,,---,0.00,VWS V14.01,2013-01-09 18:55:00,
2013-01-09 14:01:00,48.0,22.4,30.18,SW,216,6.2,10.0,36,0.00,,---,0.00,VWS V14.01,2013-01-09 19:01:00,
2013-01-09 14:06:00,47.8,22.2,30.18,SSW,202,7.7,11.6,36,0.00,,---,0.00,VWS V14.01,2013-01-09 19:06:00,
2013-01-09 14:12:00,47.7,22.0,30.18,South,182,6.7,8.7,36,0.00,,---,0.00,VWS V14.01,2013-01-09 19:12:00,
2013-01-09 14:18:00,47.7,22.7,30.18,SSW,196,5.7,10.0,37,0.00,,---,0.00,VWS V14.01,2013-01-09 19:18:00,
2013-01-09 14:24:00,47.7,23.3,30.21,South,191,5.7,8.7,38,0.00,,---,0.00,VWS V14.01,2013-01-09 19:24:00,
2013-01-09 14:30:00,47.8,24.1,30.21,WSW,241,7.2,9.5,39,0.00,,---,0.00,VWS V14.01,2013-01-09 19:30:00,
2013-01-09 14:36:00,48.0,24.3,30.18,SSW,193,6.2,8.7,39,0.00,,---,0.00,VWS V14.01,2013-01-09 19:36:00,
2013-01-09 14:41:00,48.0,24.9,30.18,SSW,210,7.2,9.5,40,0.00,,---,0.00,VWS V14.01,2013-01-09 19:41:00,
2013-01-09 14:47:00,48.0,24.9,30.18,SSW,209,7.2,9.3,40,0.00,,---,0.00,VWS V14.01,2013-01-09 19:47:00,
2013-01-09 14:52:00,48.0,24.9,30.18,SSW,208,6.2,9.5,40,0.00,,---,0.00,VWS V14.01,2013-01-09 19:52:00,
2013-01-09 14:58:00,48.2,25.0,30.18,SSW,208,9.3,10.0,40,0.00,,---,0.00,VWS V14.01,2013-01-09 19:58:00,
2013-01-09 15:04:00,48.2,25.0,30.18,WSW,258,4.6,9.3,40,0.00,,---,0.00,VWS V14.01,2013-01-09 20:04:00,
2013-01-09 15:09:00,48.0,24.9,30.18,SSW,201,6.2,7.7,40,0.00,,---,0.00,VWS V14.01,2013-01-09 20:09:00,
2013-01-09 15:15:00,48.0,24.9,30.18,SSW,193,6.2,6.2,40,0.00,,---,0.00,VWS V14.01,2013-01-09 20:15:00,
2013-01-09 15:21:00,47.8,25.3,30.18,SSE,166,9.3,9.5,41,0.00,,---,0.00,VWS V14.01,2013-01-09 20:21:00,
2013-01-09 15:26:00,47.8,25.3,30.18,SSW,194,6.2,8.7,41,0.00,,---,0.00,VWS V14.01,2013-01-09 20:26:00,
2013-01-09 15:32:00,47.7,25.1,30.18,SSW,206,4.6,6.2,41,0.00,,---,0.00,VWS V14.01,2013-01-09 20:32:00,
2013-01-09 15:37:00,47.5,25.0,30.15,SW,218,9.5,9.5,41,0.00,,---,0.00,VWS V14.01,2013-01-09 20:37:00,
2013-01-09 15:43:00,47.3,25.4,30.15,SW,224,4.1,6.7,42,0.00,,---,0.00,VWS V14.01,2013-01-09 20:43:00,
2013-01-09 15:49:00,47.1,25.2,30.15,SSW,207,4.6,7.2,42,0.00,,---,0.00,VWS V14.01,2013-01-09 20:49:00,
2013-01-09 15:55:00,46.9,25.6,30.15,SSW,195,4.6,6.7,43,0.00,,---,0.00,VWS V14.01,2013-01-09 20:55:00,
2013-01-09 16:01:00,46.8,25.5,30.15,SW,223,5.7,7.2,43,0.00,,---,0.00,VWS V14.01,2013-01-09 21:01:00,
2013-01-09 16:07:00,46.6,25.9,30.12,SSW,213,6.7,8.7,44,0.00,,---,0.00,VWS V14.01,2013-01-09 21:07:00,
2013-01-09 16:12:00,46.6,26.4,30.12,SSW,201,6.7,6.7,45,0.00,,---,0.00,VWS V14.01,2013-01-09 21:12:00,
2013-01-09 16:18:00,46.4,26.8,30.12,SW,222,5.7,7.2,46,0.00,,---,0.00,VWS V14.01,2013-01-09 21:18:00,
2013-01-09 16:24:00,46.2,26.6,30.12,SW,234,6.2,7.2,46,0.00,,---,0.00,VWS V14.01,2013-01-09 21:24:00,
2013-01-09 16:30:00,46.4,26.8,30.12,SW,230,5.7,8.7,46,0.00,,---,0.00,VWS V14.01,2013-01-09 21:30:00,
2013-01-09 16:36:00,46.4,27.3,30.12,SW,231,6.2,8.7,47,0.00,,---,0.00,VWS V14.01,2013-01-09 21:36:00,
2013-01-09 16:41:00,46.6,27.5,30.12,SSW,196,0.0,0.0,47,0.00,,---,0.00,VWS V14.01,2013-01-09 21:41:00,
2013-01-09 16:46:00,46.8,28.1,30.12,SW,218,0.0,0.0,48,0.00,,---,0.00,VWS V14.01,2013-01-09 21:46:00,
2013-01-09 16:52:00,46.8,28.6,30.12,SW,231,0.0,0.0,49,0.00,,---,0.00,VWS V14.01,2013-01-09 21:52:00,
2013-01-09 16:57:00,46.8,28.6,30.12,SSW,205,0.0,0.0,49,0.00,,---,0.00,VWS V14.01,2013-01-09 21:57:00,
2013-01-09 17:03:00,46.8,28.1,30.12,SSW,195,0.0,0.0,48,0.00,,---,0.00,VWS V14.01,2013-01-09 22:03:00,
2013-01-09 17:08:00,46.8,27.6,30.09,SSW,206,0.0,0.0,47,0.00,,---,0.00,VWS V14.01,2013-01-09 22:08:00,
2013-01-09 17:13:00,46.8,27.6,30.09,SSW,193,0.0,0.0,47,0.00,,---,0.00,VWS V14.01,2013-01-09 22:13:00,
2013-01-09 17:18:00,46.8,27.6,30.09,SSW,200,0.0,0.0,47,0.00,,---,0.00,VWS V14.01,2013-01-09 22:18:00,
2013-01-09 17:24:00,46.8,27.6,30.06,WSW,251,0.0,0.0,47,0.00,,---,0.00,VWS V14.01,2013-01-09 22:24:00,
2013-01-09 17:29:00,46.8,27.6,30.06,SW,225,0.0,0.0,47,0.00,,---,0.00,VWS V14.01,2013-01-09 22:29:00,
2013-01-09 17:35:00,46.6,28.5,30.06,South,190,0.0,0.0,49,0.00,,---,0.00,VWS V14.01,2013-01-09 22:35:00,
2013-01-09 17:41:00,46.8,29.1,30.03,SSW,207,0.0,0.0,50,0.00,,---,0.00,VWS V14.01,2013-01-09 22:41:00,
2013-01-09 17:46:00,46.9,29.8,30.03,South,189,0.0,0.0,51,0.00,,---,0.00,VWS V14.01,2013-01-09 22:46:00,
2013-01-09 17:52:00,46.9,30.2,30.00,South,181,0.0,0.0,52,0.00,,---,0.00,VWS V14.01,2013-01-09 22:52:00,
2013-01-09 17:57:00,46.9,30.7,30.00,SSW,211,0.0,0.0,53,0.00,,---,0.00,VWS V14.01,2013-01-09 22:57:00,
2013-01-09 18:02:00,47.3,32.0,30.00,SSW,198,0.0,0.0,55,0.00,,---,0.00,VWS V14.01,2013-01-09 23:02:00,
2013-01-09 18:07:00,47.5,32.6,29.97,SSW,200,0.0,0.0,56,0.00,,---,0.00,VWS V14.01,2013-01-09 23:07:00,
2013-01-09 18:13:00,47.8,32.5,29.97,West,265,0.0,0.0,55,0.00,,---,0.00,VWS V14.01,2013-01-09 23:13:00,
2013-01-09 18:18:00,48.0,32.2,29.97,WSW,239,0.0,0.0,54,0.00,,---,0.00,VWS V14.01,2013-01-09 23:18:00,
2013-01-09 18:24:00,48.2,31.4,30.03,WNW,287,0.0,0.0,52,0.00,,---,0.00,VWS V14.01,2013-01-09 23:24:00,
2013-01-09 18:30:00,48.6,30.8,30.03,SW,221,0.0,0.0,50,0.00,,---,0.00,VWS V14.01,2013-01-09 23:30:00,
2013-01-09 18:35:00,48.7,30.5,30.03,SSW,210,0.0,0.0,49,0.00,,---,0.00,VWS V14.01,2013-01-09 23:35:00,
2013-01-09 18:40:00,48.7,29.9,30.03,West,263,0.0,0.0,48,0.00,,---,0.00,VWS V14.01,2013-01-09 23:40:00,
2013-01-09 18:45:00,48.7,29.9,30.03,SSW,193,0.0,0.0,48,0.00,,---,0.00,VWS V14.01,2013-01-09 23:45:00,
2013-01-09 18:51:00,48.9,30.1,30.03,SW,224,0.0,0.0,48,0.00,,---,0.00,VWS V14.01,2013-01-09 23:51:00,
2013-01-09 18:56:00,48.9,30.6,30.03,SW,235,0.0,0.0,49,0.00,,---,0.00,VWS V14.01,2013-01-09 23:56:00,
2013-01-09 19:02:00,48.7,29.9,30.03,SW,224,0.0,0.0,48,0.00,,---,0.00,VWS V14.01,2013-01-10 00:02:00,
2013-01-09 19:07:00,48.7,30.5,30.03,WNW,285,0.0,0.0,49,0.00,,---,0.00,VWS V14.01,2013-01-10 00:07:00,
2013-01-09 19:12:00,48.7,30.5,30.03,SW,232,0.0,0.0,49,0.00,,---,0.00,VWS V14.01,2013-01-10 00:12:00,
2013-01-09 19:17:00,48.6,30.3,30.03,SW,225,0.0,0.0,49,0.00,,---,0.00,VWS V14.01,2013-01-10 00:17:00,
2013-01-09 19:23:00,48.7,31.0,30.03,SSW,209,0.0,0.0,50,0.00,,---,0.00,VWS V14.01,2013-01-10 00:23:00,
2013-01-09 19:28:00,48.7,31.0,30.03,WSW,245,0.0,0.0,50,0.00,,---,0.00,VWS V14.01,2013-01-10 00:28:00,
2013-01-09 19:33:00,48.7,31.0,30.03,SSW,210,0.0,0.0,50,0.00,,---,0.00,VWS V14.01,2013-01-10 00:33:00,
2013-01-09 19:38:00,48.7,30.5,30.03,SSW,211,0.0,0.0,49,0.00,,---,0.00,VWS V14.01,2013-01-10 00:38:00,
2013-01-09 19:44:00,48.6,30.3,30.03,West,263,0.0,0.0,49,0.00,,---,0.00,VWS V14.01,2013-01-10 00:44:00,
2013-01-09 19:49:00,48.2,29.5,30.03,SSW,206,0.0,0.0,48,0.00,,---,0.00,VWS V14.01,2013-01-10 00:49:00,
2013-01-09 19:54:00,48.2,30.0,30.00,WSW,238,0.0,0.0,49,0.00,,---,0.00,VWS V14.01,2013-01-10 00:54:00,
2013-01-09 19:59:00,48.4,30.6,30.00,SSE,157,0.0,0.0,50,0.00,,---,0.00,VWS V14.01,2013-01-10 00:59:00,
2013-01-09 20:05:00,48.4,31.1,30.00,SSW,198,0.0,0.0,51,0.00,,---,0.00,VWS V14.01,2013-01-10 01:05:00,
2013-01-09 20:10:00,48.7,31.9,30.00,SW,231,0.0,0.0,52,0.00,,---,0.00,VWS V14.01,2013-01-10 01:10:00,
2013-01-09 20:15:00,48.9,32.1,30.00,SW,221,0.0,0.0,52,0.00,,---,0.00,VWS V14.01,2013-01-10 01:15:00,
2013-01-09 20:20:00,48.7,31.4,30.00,WSW,248,0.0,0.0,51,0.00,,---,0.00,VWS V14.01,2013-01-10 01:20:00,
2013-01-09 20:26:00,49.1,31.8,30.00,SW,214,6.2,11.6,51,0.00,,---,0.00,VWS V14.01,2013-01-10 01:26:00,
2013-01-09 20:31:00,49.1,31.3,30.00,SSW,200,6.7,13.1,50,0.00,,---,0.00,VWS V14.01,2013-01-10 01:31:00,
2013-01-09 20:37:00,49.1,29.8,30.00,NW,319,7.7,10.0,47,0.00,,---,0.00,VWS V14.01,2013-01-10 01:37:00,
2013-01-09 20:43:00,49.5,27.9,30.00,SW,222,6.7,9.3,43,0.00,,---,0.00,VWS V14.01,2013-01-10 01:43:00,
2013-01-09 20:48:00,49.6,26.9,30.00,West,281,6.7,12.1,41,0.00,,---,0.00,VWS V14.01,2013-01-10 01:48:00,
2013-01-09 20:53:00,49.6,26.3,30.00,WNW,288,10.0,10.0,40,0.00,,---,0.00,VWS V14.01,2013-01-10 01:53:00,
2013-01-09 20:59:00,49.6,25.1,30.00,WSW,253,11.6,11.6,38,0.00,,---,0.00,VWS V14.01,2013-01-10 01:59:00,
2013-01-09 21:05:00,49.5,24.3,30.00,SW,225,12.6,12.6,37,0.00,,---,0.00,VWS V14.01,2013-01-10 02:05:00,
2013-01-09 21:10:00,49.3,23.5,30.00,NW,309,12.6,14.1,36,0.00,,---,0.00,VWS V14.01,2013-01-10 02:10:00,
2013-01-09 21:16:00,49.1,23.3,30.00,WSW,237,6.7,10.0,36,0.00,,---,0.00,VWS V14.01,2013-01-10 02:16:00,
2013-01-09 21:22:00,48.9,22.5,30.00,West,265,11.1,13.1,35,0.00,,---,0.00,VWS V14.01,2013-01-10 02:22:00,
2013-01-09 21:27:00,48.9,22.5,30.00,SSW,194,7.2,9.3,35,0.00,,---,0.00,VWS V14.01,2013-01-10 02:27:00,
2013-01-09 21:33:00,48.7,22.3,30.00,NW,313,12.1,12.1,35,0.00,,---,0.00,VWS V14.01,2013-01-10 02:33:00,
2013-01-09 21:38:00,48.4,22.0,30.00,West,272,9.3,10.5,35,0.00,,---,0.00,VWS V14.01,2013-01-10 02:38:00,
2013-01-09 21:44:00,48.2,21.9,30.00,West,269,10.5,14.7,35,0.00,,---,0.00,VWS V14.01,2013-01-10 02:44:00,
2013-01-09 21:50:00,48.0,21.7,30.00,WSW,241,8.7,13.6,35,0.00,,---,0.00,VWS V14.01,2013-01-10 02:50:00,
2013-01-09 21:55:00,48.0,21.7,30.00,South,184,10.0,10.0,35,0.00,,---,0.00,VWS V14.01,2013-01-10 02:55:00,
2013-01-09 22:01:00,47.7,21.4,30.00,West,269,7.2,12.1,35,0.00,,---,0.00,VWS V14.01,2013-01-10 03:01:00,
2013-01-09 22:06:00,47.7,20.7,30.00,WSW,238,9.3,9.3,34,0.00,,---,0.00,VWS V14.01,2013-01-10 03:06:00,
2013-01-09 22:12:00,47.7,20.7,30.00,SSW,200,7.2,12.6,34,0.00,,---,0.00,VWS V14.01,2013-01-10 03:12:00,
2013-01-09 22:18:00,47.5,20.5,30.00,West,276,12.6,12.6,34,0.00,,---,0.00,VWS V14.01,2013-01-10 03:18:00,
2013-01-09 22:23:00,47.5,19.8,30.00,SW,221,6.7,9.3,33,0.00,,---,0.00,VWS V14.01,2013-01-10 03:23:00,
2013-01-09 22:28:00,47.7,19.3,30.00,WSW,242,6.7,9.3,32,0.00,,---,0.00,VWS V14.01,2013-01-10 03:28:00,
2013-01-09 22:33:00,47.5,19.1,30.00,WNW,299,8.7,11.6,32,0.00,,---,0.00,VWS V14.01,2013-01-10 03:33:00,
2013-01-09 22:39:00,47.5,19.1,30.00,WSW,246,8.7,8.7,32,0.00,,---,0.00,VWS V14.01,2013-01-10 03:39:00,
2013-01-09 22:44:00,47.5,19.1,30.00,ESE,116,9.5,12.1,32,0.00,,---,0.00,VWS V14.01,2013-01-10 03:44:00,
2013-01-09 22:50:00,47.3,19.0,30.00,NNW,337,12.1,12.1,32,0.00,,---,0.00,VWS V14.01,2013-01-10 03:50:00,
2013-01-09 22:55:00,47.3,19.0,30.00,West,265,10.0,11.6,32,0.00,,---,0.00,VWS V14.01,2013-01-10 03:55:00,
2013-01-09 23:01:00,47.1,18.8,30.00,WNW,283,4.1,7.2,32,0.00,,---,0.00,VWS V14.01,2013-01-10 04:01:00,
2013-01-09 23:06:00,46.9,18.6,30.00,SW,234,9.3,12.6,32,0.00,,---,0.00,VWS V14.01,2013-01-10 04:06:00,
2013-01-09 23:12:00,46.9,18.6,30.00,North,357,6.2,11.6,32,0.00,,---,0.00,VWS V14.01,2013-01-10 04:12:00,
2013-01-09 23:18:00,46.8,18.5,30.00,WNW,292,9.5,12.1,32,0.00,,---,0.00,VWS V14.01,2013-01-10 04:18:00,
2013-01-09 23:23:00,46.6,18.3,30.00,West,281,9.5,15.2,32,0.00,,---,0.00,VWS V14.01,2013-01-10 04:23:00,
2013-01-09 23:28:00,46.4,18.2,30.00,WSW,257,6.7,8.7,32,0.00,,---,0.00,VWS V14.01,2013-01-10 04:28:00,
2013-01-09 23:33:00,46.2,18.7,30.00,WNW,290,6.7,8.2,33,0.00,,---,0.00,VWS V14.01,2013-01-10 04:33:00,
2013-01-09 23:39:00,45.9,18.4,30.00,West,279,6.7,8.2,33,0.00,,---,0.00,VWS V14.01,2013-01-10 04:39:00,
2013-01-09 23:45:00,45.7,18.2,30.00,NNW,327,4.1,11.6,33,0.00,,---,0.00,VWS V14.01,2013-01-10 04:45:00,
2013-01-09 23:50:00,45.5,18.1,30.00,NW,311,10.0,10.0,33,0.00,,---,0.00,VWS V14.01,2013-01-10 04:50:00,
2013-01-09 23:56:00,45.5,18.1,30.00,WNW,296,4.6,7.2,33,0.00,,---,0.00,VWS V14.01,2013-01-10 04:56:00,